sensor_id;sensor_type;location;lat;lon;timestamp;pressure;altitude;pressure_sealevel;temperature;humidity
69257;BME280;56376;53.356;-1.748;2023-08-17T00:00:19;100180.34;;;14.50;100.00
69257;BME280;56376;53.356;-1.748;2023-08-17T00:02:45;100182.19;;;14.48;100.00
69257;BME280;56376;53.356;-1.748;2023-08-17T00:05:11;100184.94;;;14.45;100.00
69257;BME280;56376;53.356;-1.748;2023-08-17T00:07:36;100183.25;;;14.44;100.00
69257;BME280;56376;53.356;-1.748;2023-08-17T00:10:02;100187.72;;;14.42;100.00
69257;BME280;56376;53.356;-1.748;2023-08-17T00:12:28;100182.50;;;14.40;100.00
69257;BME280;56376;53.356;-1.748;2023-08-17T00:14:54;100186.97;;;14.38;100.00
69257;BME280;56376;53.356;-1.748;2023-08-17T00:17:20;100181.91;;;14.34;100.00
69257;BME280;56376;53.356;-1.748;2023-08-17T00:19:45;100191.44;;;14.36;100.00
69257;BME280;56376;53.356;-1.748;2023-08-17T00:22:11;100193.19;;;14.36;100.00
69257;BME280;56376;53.356;-1.748;2023-08-17T00:24:36;100186.16;;;14.36;100.00
69257;BME280;56376;53.356;-1.748;2023-08-17T00:27:02;100183.66;;;14.33;100.00
69257;BME280;56376;53.356;-1.748;2023-08-17T00:29:29;100188.09;;;14.33;100.00
69257;BME280;56376;53.356;-1.748;2023-08-17T00:31:54;100183.84;;;14.28;100.00
69257;BME280;56376;53.356;-1.748;2023-08-17T00:34:20;100187.41;;;14.27;100.00
69257;BME280;56376;53.356;-1.748;2023-08-17T00:36:45;100187.56;;;14.24;100.00
69257;BME280;56376;53.356;-1.748;2023-08-17T00:39:10;100190.19;;;14.24;100.00
69257;BME280;56376;53.356;-1.748;2023-08-17T00:41:36;100193.69;;;14.23;100.00
69257;BME280;56376;53.356;-1.748;2023-08-17T00:44:02;100184.97;;;14.23;100.00
69257;BME280;56376;53.356;-1.748;2023-08-17T00:46:27;100189.38;;;14.22;100.00
69257;BME280;56376;53.356;-1.748;2023-08-17T00:48:54;100179.72;;;14.23;100.00
69257;BME280;56376;53.356;-1.748;2023-08-17T00:51:23;100181.50;;;14.22;100.00
69257;BME280;56376;53.356;-1.748;2023-08-17T00:53:50;100192.00;;;14.22;100.00
69257;BME280;56376;53.356;-1.748;2023-08-17T00:56:16;100179.13;;;14.16;100.00
69257;BME280;56376;53.356;-1.748;2023-08-17T00:58:42;100178.16;;;14.19;100.00
69257;BME280;56376;53.356;-1.748;2023-08-17T01:01:08;100185.91;;;14.22;100.00
69257;BME280;56376;53.356;-1.748;2023-08-17T01:03:34;100182.47;;;14.20;100.00
69257;BME280;56376;53.356;-1.748;2023-08-17T01:06:00;100181.63;;;14.19;100.00
69257;BME280;56376;53.356;-1.748;2023-08-17T01:08:28;100189.50;;;14.19;100.00
69257;BME280;56376;53.356;-1.748;2023-08-17T01:11:24;100184.31;;;14.18;100.00
69257;BME280;56376;53.356;-1.748;2023-08-17T01:16:42;100177.34;;;14.17;100.00
69257;BME280;56376;53.356;-1.748;2023-08-17T01:19:12;100176.50;;;14.16;100.00
69257;BME280;56376;53.356;-1.748;2023-08-17T01:21:42;100186.13;;;14.16;100.00
69257;BME280;56376;53.356;-1.748;2023-08-17T01:24:10;100180.03;;;14.15;100.00
69257;BME280;56376;53.356;-1.748;2023-08-17T01:26:36;100163.47;;;14.13;100.00
69257;BME280;56376;53.356;-1.748;2023-08-17T01:29:02;100176.56;;;14.15;100.00
69257;BME280;56376;53.356;-1.748;2023-08-17T01:31:33;100173.94;;;14.15;100.00
69257;BME280;56376;53.356;-1.748;2023-08-17T01:34:05;100162.56;;;14.14;100.00
69257;BME280;56376;53.356;-1.748;2023-08-17T01:36:37;100159.94;;;14.14;100.00
69257;BME280;56376;53.356;-1.748;2023-08-17T01:39:03;100162.56;;;14.14;100.00
69257;BME280;56376;53.356;-1.748;2023-08-17T01:41:30;100163.41;;;14.15;100.00
69257;BME280;56376;53.356;-1.748;2023-08-17T01:43:57;100164.28;;;14.15;100.00
69257;BME280;56376;53.356;-1.748;2023-08-17T01:46:29;100162.56;;;14.14;100.00
69257;BME280;56376;53.356;-1.748;2023-08-17T01:48:55;100157.25;;;14.16;100.00
69257;BME280;56376;53.356;-1.748;2023-08-17T01:51:21;100171.25;;;14.16;100.00
69257;BME280;56376;53.356;-1.748;2023-08-17T01:53:47;100173.88;;;14.16;100.00
69257;BME280;56376;53.356;-1.748;2023-08-17T01:56:13;100169.53;;;14.15;100.00
69257;BME280;56376;53.356;-1.748;2023-08-17T01:58:38;100170.38;;;14.16;100.00
69257;BME280;56376;53.356;-1.748;2023-08-17T02:01:04;100175.63;;;14.16;100.00
69257;BME280;56376;53.356;-1.748;2023-08-17T02:03:29;100169.53;;;14.15;100.00
69257;BME280;56376;53.356;-1.748;2023-08-17T02:05:58;100166.91;;;14.15;100.00
69257;BME280;56376;53.356;-1.748;2023-08-17T02:08:24;100170.38;;;14.16;100.00
69257;BME280;56376;53.356;-1.748;2023-08-17T02:10:50;100166.00;;;14.16;100.00
69257;BME280;56376;53.356;-1.748;2023-08-17T02:13:16;100171.25;;;14.16;100.00
69257;BME280;56376;53.356;-1.748;2023-08-17T02:15:42;100180.03;;;14.15;100.00
69257;BME280;56376;53.356;-1.748;2023-08-17T02:18:07;100166.09;;;14.13;100.00
69257;BME280;56376;53.356;-1.748;2023-08-17T02:20:33;100172.28;;;14.12;100.00
69257;BME280;56376;53.356;-1.748;2023-08-17T02:22:59;100173.22;;;14.11;100.00
69257;BME280;56376;53.356;-1.748;2023-08-17T02:25:24;100174.09;;;14.10;100.00
69257;BME280;56376;53.356;-1.748;2023-08-17T02:27:50;100171.47;;;14.10;100.00
69257;BME280;56376;53.356;-1.748;2023-08-17T02:30:15;100169.84;;;14.07;100.00
69257;BME280;56376;53.356;-1.748;2023-08-17T02:32:41;100176.88;;;14.07;100.00
69257;BME280;56376;53.356;-1.748;2023-08-17T02:35:07;100173.44;;;14.05;100.00
69257;BME280;56376;53.356;-1.748;2023-08-17T02:37:32;100177.00;;;14.04;100.00
69257;BME280;56376;53.356;-1.748;2023-08-17T02:39:58;100180.53;;;14.03;100.00
69257;BME280;56376;53.356;-1.748;2023-08-17T02:42:23;100167.38;;;14.03;100.00
69257;BME280;56376;53.356;-1.748;2023-08-17T02:44:49;100177.84;;;14.04;100.00
69257;BME280;56376;53.356;-1.748;2023-08-17T02:47:14;100180.53;;;14.03;100.00
69257;BME280;56376;53.356;-1.748;2023-08-17T02:49:39;100180.59;;;14.01;100.00
69257;BME280;56376;53.356;-1.748;2023-08-17T02:52:05;100176.25;;;14.00;100.00
69257;BME280;56376;53.356;-1.748;2023-08-17T02:54:30;100172.72;;;14.01;100.00
69257;BME280;56376;53.356;-1.748;2023-08-17T02:56:57;100164.03;;;13.99;100.00
69257;BME280;56376;53.356;-1.748;2023-08-17T02:59:22;100180.59;;;14.01;100.00
69257;BME280;56376;53.356;-1.748;2023-08-17T03:01:48;100179.63;;;14.04;100.00
69257;BME280;56376;53.356;-1.748;2023-08-17T03:04:13;100177.00;;;14.04;100.00
69257;BME280;56376;53.356;-1.748;2023-08-17T03:06:39;100169.13;;;14.04;100.00
69257;BME280;56376;53.356;-1.748;2023-08-17T03:09:04;100174.41;;;14.02;100.00
69257;BME280;56376;53.356;-1.748;2023-08-17T03:11:30;100166.59;;;14.01;100.00
69257;BME280;56376;53.356;-1.748;2023-08-17T03:13:55;100156.09;;;14.01;100.00
69257;BME280;56376;53.356;-1.748;2023-08-17T03:16:25;100165.81;;;13.99;100.00
69257;BME280;56376;53.356;-1.748;2023-08-17T03:18:51;100168.31;;;14.02;100.00
69257;BME280;56376;53.356;-1.748;2023-08-17T03:21:17;100157.81;;;14.02;100.00
69257;BME280;56376;53.356;-1.748;2023-08-17T03:23:43;100167.38;;;14.03;100.00
69257;BME280;56376;53.356;-1.748;2023-08-17T03:26:09;100163.25;;;13.97;100.00
69257;BME280;56376;53.356;-1.748;2023-08-17T03:28:34;100157.00;;;14.00;100.00
69257;BME280;56376;53.356;-1.748;2023-08-17T03:31:00;100155.41;;;13.96;100.00
69257;BME280;56376;53.356;-1.748;2023-08-17T03:33:26;100158.16;;;13.93;100.00
69257;BME280;56376;53.356;-1.748;2023-08-17T03:35:52;100160.00;;;13.91;100.00
69257;BME280;56376;53.356;-1.748;2023-08-17T03:38:17;100156.47;;;13.92;100.00
69257;BME280;56376;53.356;-1.748;2023-08-17T03:40:43;100160.88;;;13.91;100.00
69257;BME280;56376;53.356;-1.748;2023-08-17T03:43:08;100156.47;;;13.92;100.00
69257;BME280;56376;53.356;-1.748;2023-08-17T03:45:33;100147.75;;;13.91;100.00
69257;BME280;56376;53.356;-1.748;2023-08-17T03:47:59;100158.16;;;13.93;100.00
69257;BME280;56376;53.356;-1.748;2023-08-17T03:50:26;100155.63;;;13.91;100.00
69257;BME280;56376;53.356;-1.748;2023-08-17T03:52:51;100146.09;;;13.89;100.00
69257;BME280;56376;53.356;-1.748;2023-08-17T03:55:17;100142.59;;;13.88;100.00
69257;BME280;56376;53.356;-1.748;2023-08-17T03:57:42;100156.66;;;13.87;100.00
69257;BME280;56376;53.356;-1.748;2023-08-17T04:00:08;100149.72;;;13.86;100.00
69257;BME280;56376;53.356;-1.748;2023-08-17T04:02:35;100154.06;;;13.85;100.00
69257;BME280;56376;53.356;-1.748;2023-08-17T04:05:01;100146.19;;;13.85;100.00
69257;BME280;56376;53.356;-1.748;2023-08-17T04:07:26;100148.81;;;13.85;100.00
69257;BME280;56376;53.356;-1.748;2023-08-17T04:09:52;100151.53;;;13.84;100.00
69257;BME280;56376;53.356;-1.748;2023-08-17T04:12:17;100155.81;;;13.87;100.00
69257;BME280;56376;53.356;-1.748;2023-08-17T04:14:44;100151.41;;;13.87;100.00
69257;BME280;56376;53.356;-1.748;2023-08-17T04:17:09;100151.41;;;13.87;100.00
69257;BME280;56376;53.356;-1.748;2023-08-17T04:19:34;100149.56;;;13.89;100.00
69257;BME280;56376;53.356;-1.748;2023-08-17T04:22:00;100155.63;;;13.91;100.00
69257;BME280;56376;53.356;-1.748;2023-08-17T04:24:25;100146.03;;;13.90;100.00
69257;BME280;56376;53.356;-1.748;2023-08-17T04:26:51;100154.75;;;13.91;100.00
69257;BME280;56376;53.356;-1.748;2023-08-17T04:29:16;100149.50;;;13.91;100.00
69257;BME280;56376;53.356;-1.748;2023-08-17T04:31:41;100147.63;;;13.94;100.00
69257;BME280;56376;53.356;-1.748;2023-08-17T04:34:07;100149.31;;;13.95;100.00
69257;BME280;56376;53.356;-1.748;2023-08-17T04:36:32;100140.53;;;13.96;100.00
69257;BME280;56376;53.356;-1.748;2023-08-17T04:38:58;100141.44;;;13.95;100.00
69257;BME280;56376;53.356;-1.748;2023-08-17T04:41:23;100145.00;;;13.94;100.00
69257;BME280;56376;53.356;-1.748;2023-08-17T04:43:48;100144.06;;;13.95;100.00
69257;BME280;56376;53.356;-1.748;2023-08-17T04:46:14;100145.72;;;13.98;100.00
69257;BME280;56376;53.356;-1.748;2023-08-17T04:48:40;100144.06;;;13.95;100.00
69257;BME280;56376;53.356;-1.748;2023-08-17T04:51:05;100143.88;;;14.00;100.00
69257;BME280;56376;53.356;-1.748;2023-08-17T04:53:30;100155.00;;;14.06;100.00
69257;BME280;56376;53.356;-1.748;2023-08-17T04:55:56;100151.31;;;14.11;100.00
69257;BME280;56376;53.356;-1.748;2023-08-17T04:58:21;100147.78;;;14.12;100.00
69257;BME280;56376;53.356;-1.748;2023-08-17T05:00:47;100153.75;;;14.15;100.00
69257;BME280;56376;53.356;-1.748;2023-08-17T05:03:13;100141.56;;;14.14;100.00
69257;BME280;56376;53.356;-1.748;2023-08-17T05:05:38;100147.53;;;14.18;100.00
69257;BME280;56376;53.356;-1.748;2023-08-17T05:08:04;100154.56;;;14.17;100.00
69257;BME280;56376;53.356;-1.748;2023-08-17T05:10:29;100151.09;;;14.17;100.00
69257;BME280;56376;53.356;-1.748;2023-08-17T05:12:55;100151.00;;;14.18;100.00
69257;BME280;56376;53.356;-1.748;2023-08-17T05:15:20;100151.75;;;14.22;100.00
69257;BME280;56376;53.356;-1.748;2023-08-17T05:17:46;100148.19;;;14.23;100.00
69257;BME280;56376;53.356;-1.748;2023-08-17T05:20:11;100139.50;;;14.21;100.00
69257;BME280;56376;53.356;-1.748;2023-08-17T05:22:40;100144.56;;;14.25;100.00
69257;BME280;56376;53.356;-1.748;2023-08-17T05:25:06;100143.69;;;14.26;100.00
69257;BME280;56376;53.356;-1.748;2023-08-17T05:27:32;100144.44;;;14.28;100.00
69257;BME280;56376;53.356;-1.748;2023-08-17T05:29:57;100135.53;;;14.33;100.00
69257;BME280;56376;53.356;-1.748;2023-08-17T05:32:23;100140.72;;;14.34;100.00
69257;BME280;56376;53.356;-1.748;2023-08-17T05:34:48;100141.38;;;14.39;100.00
69257;BME280;56376;53.356;-1.748;2023-08-17T05:37:13;100140.31;;;14.43;100.00
69257;BME280;56376;53.356;-1.748;2023-08-17T05:39:40;100143.59;;;14.48;100.00
69257;BME280;56376;53.356;-1.748;2023-08-17T05:42:06;100139.81;;;14.56;100.00
69257;BME280;56376;53.356;-1.748;2023-08-17T05:44:32;100146.69;;;14.60;100.00
69257;BME280;56376;53.356;-1.748;2023-08-17T05:46:57;100140.56;;;14.59;100.00
69257;BME280;56376;53.356;-1.748;2023-08-17T05:49:22;100150.81;;;14.65;100.00
69257;BME280;56376;53.356;-1.748;2023-08-17T05:51:48;100148.84;;;14.70;100.00
69257;BME280;56376;53.356;-1.748;2023-08-17T05:54:13;100154.88;;;14.73;100.00
69257;BME280;56376;53.356;-1.748;2023-08-17T05:56:39;100163.56;;;14.75;100.00
69257;BME280;56376;53.356;-1.748;2023-08-17T05:59:10;100146.81;;;14.77;100.00
69257;BME280;56376;53.356;-1.748;2023-08-17T06:01:35;100149.34;;;14.79;100.00
69257;BME280;56376;53.356;-1.748;2023-08-17T06:04:01;100151.91;;;14.80;100.00
69257;BME280;56376;53.356;-1.748;2023-08-17T06:06:26;100151.78;;;14.83;100.00
69257;BME280;56376;53.356;-1.748;2023-08-17T06:08:52;100145.53;;;14.86;100.00
69257;BME280;56376;53.356;-1.748;2023-08-17T06:11:17;100152.38;;;14.90;100.00
69257;BME280;56376;53.356;-1.748;2023-08-17T06:13:43;100152.44;;;14.88;100.00
69257;BME280;56376;53.356;-1.748;2023-08-17T06:16:08;100157.53;;;14.91;100.00
69257;BME280;56376;53.356;-1.748;2023-08-17T06:18:34;100161.81;;;14.94;100.00
69257;BME280;56376;53.356;-1.748;2023-08-17T06:20:59;100161.72;;;14.97;100.00
69257;BME280;56376;53.356;-1.748;2023-08-17T06:23:25;100159.94;;;14.98;100.00
69257;BME280;56376;53.356;-1.748;2023-08-17T06:25:50;100158.09;;;15.00;100.00
69257;BME280;56376;53.356;-1.748;2023-08-17T06:28:16;100152.81;;;15.00;100.00
69257;BME280;56376;53.356;-1.748;2023-08-17T06:30:41;100162.34;;;15.02;100.00
69257;BME280;56376;53.356;-1.748;2023-08-17T06:33:07;100162.28;;;15.04;100.00
69257;BME280;56376;53.356;-1.748;2023-08-17T06:35:32;100165.75;;;15.04;100.00
69257;BME280;56376;53.356;-1.748;2023-08-17T06:37:57;100164.91;;;15.04;100.00
69257;BME280;56376;53.356;-1.748;2023-08-17T06:40:24;100161.38;;;15.05;100.00
69257;BME280;56376;53.356;-1.748;2023-08-17T06:42:49;100165.69;;;15.06;100.00
69257;BME280;56376;53.356;-1.748;2023-08-17T06:45:15;100167.47;;;15.05;100.00
69257;BME280;56376;53.356;-1.748;2023-08-17T06:47:44;100166.47;;;15.08;100.00
69257;BME280;56376;53.356;-1.748;2023-08-17T06:50:10;100167.28;;;15.10;100.00
69257;BME280;56376;53.356;-1.748;2023-08-17T06:52:36;100162.06;;;15.08;100.00
69257;BME280;56376;53.356;-1.748;2023-08-17T06:55:01;100167.19;;;15.11;100.00
69257;BME280;56376;53.356;-1.748;2023-08-17T06:57:27;100168.91;;;15.12;100.00
69257;BME280;56376;53.356;-1.748;2023-08-17T06:59:54;100161.03;;;15.12;100.00
69257;BME280;56376;53.356;-1.748;2023-08-17T07:02:21;100165.34;;;15.13;100.00
69257;BME280;56376;53.356;-1.748;2023-08-17T07:04:48;100171.41;;;15.15;100.00
69257;BME280;56376;53.356;-1.748;2023-08-17T07:07:15;100169.63;;;15.16;100.00
69257;BME280;56376;53.356;-1.748;2023-08-17T07:09:40;100166.94;;;15.18;100.00
69257;BME280;56376;53.356;-1.748;2023-08-17T07:12:06;100171.25;;;15.19;100.00
69257;BME280;56376;53.356;-1.748;2023-08-17T07:14:31;100161.53;;;15.21;100.00
69257;BME280;56376;53.356;-1.748;2023-08-17T07:16:59;100158.94;;;15.19;100.00
69257;BME280;56376;53.356;-1.748;2023-08-17T07:19:24;100170.22;;;15.23;100.00
69257;BME280;56376;53.356;-1.748;2023-08-17T07:21:50;100165.84;;;15.22;100.00
69257;BME280;56376;53.356;-1.748;2023-08-17T07:24:15;100161.53;;;15.21;100.00
69257;BME280;56376;53.356;-1.748;2023-08-17T07:26:41;100164.00;;;15.24;100.00
69257;BME280;56376;53.356;-1.748;2023-08-17T07:29:06;100164.75;;;15.27;100.00
69257;BME280;56376;53.356;-1.748;2023-08-17T07:31:32;100172.50;;;15.30;100.00
69257;BME280;56376;53.356;-1.748;2023-08-17T07:33:59;100161.03;;;15.31;100.00
69257;BME280;56376;53.356;-1.748;2023-08-17T07:36:25;100168.91;;;15.31;100.00
69257;BME280;56376;53.356;-1.748;2023-08-17T07:38:50;100166.22;;;15.33;100.00
69257;BME280;56376;53.356;-1.748;2023-08-17T07:41:16;100166.22;;;15.33;100.00
69257;BME280;56376;53.356;-1.748;2023-08-17T07:43:41;100164.28;;;15.36;100.00
69257;BME280;56376;53.356;-1.748;2023-08-17T07:46:06;100160.81;;;15.36;100.00
69257;BME280;56376;53.356;-1.748;2023-08-17T07:48:32;100160.81;;;15.36;100.00
69257;BME280;56376;53.356;-1.748;2023-08-17T07:50:59;100162.44;;;15.39;100.00
69257;BME280;56376;53.356;-1.748;2023-08-17T07:53:24;100151.72;;;15.43;100.00
69257;BME280;56376;53.356;-1.748;2023-08-17T07:55:50;100158.69;;;15.44;100.00
69257;BME280;56376;53.356;-1.748;2023-08-17T07:58:15;100155.19;;;15.44;100.00
69257;BME280;56376;53.356;-1.748;2023-08-17T08:00:41;100155.06;;;15.47;100.00
69257;BME280;56376;53.356;-1.748;2023-08-17T08:03:06;100163.81;;;15.47;100.00
69257;BME280;56376;53.356;-1.748;2023-08-17T08:05:32;100161.09;;;15.49;100.00
69257;BME280;56376;53.356;-1.748;2023-08-17T08:07:57;100155.00;;;15.48;100.00
69257;BME280;56376;53.356;-1.748;2023-08-17T08:10:22;100166.22;;;15.52;100.00
69257;BME280;56376;53.356;-1.748;2023-08-17T08:12:48;100154.78;;;15.53;100.00
69257;BME280;56376;53.356;-1.748;2023-08-17T08:15:13;100154.69;;;15.54;100.00
69257;BME280;56376;53.356;-1.748;2023-08-17T08:17:39;100161.75;;;15.54;100.00
69257;BME280;56376;53.356;-1.748;2023-08-17T08:20:05;100157.31;;;15.54;100.00
69257;BME280;56376;53.356;-1.748;2023-08-17T08:22:30;100152.06;;;15.54;100.00
69257;BME280;56376;53.356;-1.748;2023-08-17T08:24:57;100152.00;;;15.56;100.00
69257;BME280;56376;53.356;-1.748;2023-08-17T08:27:22;100163.38;;;15.56;100.00
69257;BME280;56376;53.356;-1.748;2023-08-17T08:29:48;100165.16;;;15.56;100.00
69257;BME280;56376;53.356;-1.748;2023-08-17T08:32:14;100165.94;;;15.58;100.00
69257;BME280;56376;53.356;-1.748;2023-08-17T08:34:39;100158.97;;;15.57;100.00
69257;BME280;56376;53.356;-1.748;2023-08-17T08:37:05;100159.84;;;15.57;100.00
69257;BME280;56376;53.356;-1.748;2023-08-17T08:39:30;100164.16;;;15.58;100.00
69257;BME280;56376;53.356;-1.748;2023-08-17T08:41:56;100160.59;;;15.59;100.00
69257;BME280;56376;53.356;-1.748;2023-08-17T08:44:22;100154.41;;;15.61;100.00
69257;BME280;56376;53.356;-1.748;2023-08-17T08:46:48;100168.28;;;15.64;100.00
69257;BME280;56376;53.356;-1.748;2023-08-17T08:49:19;100163.00;;;15.64;100.00
69257;BME280;56376;53.356;-1.748;2023-08-17T08:51:49;100164.66;;;15.67;100.00
69257;BME280;56376;53.356;-1.748;2023-08-17T08:54:21;100170.75;;;15.67;100.00
69257;BME280;56376;53.356;-1.748;2023-08-17T08:56:55;100161.94;;;15.68;100.00
69257;BME280;56376;53.356;-1.748;2023-08-17T08:59:23;100162.78;;;15.70;100.00
69257;BME280;56376;53.356;-1.748;2023-08-17T09:01:50;100172.22;;;15.74;100.00
69257;BME280;56376;53.356;-1.748;2023-08-17T09:04:15;100166.94;;;15.74;100.00
69257;BME280;56376;53.356;-1.748;2023-08-17T09:06:42;100166.81;;;15.77;100.00
69257;BME280;56376;53.356;-1.748;2023-08-17T09:09:10;100172.00;;;15.79;100.00
69257;BME280;56376;53.356;-1.748;2023-08-17T09:11:36;100164.94;;;15.79;100.00
69257;BME280;56376;53.356;-1.748;2023-08-17T09:14:01;100171.00;;;15.82;100.00
69257;BME280;56376;53.356;-1.748;2023-08-17T09:16:27;100170.94;;;15.83;100.00
69257;BME280;56376;53.356;-1.748;2023-08-17T09:18:53;100172.47;;;15.87;100.00
69257;BME280;56376;53.356;-1.748;2023-08-17T09:21:25;100174.22;;;15.88;100.00
69257;BME280;56376;53.356;-1.748;2023-08-17T09:23:54;100174.91;;;15.92;100.00
69257;BME280;56376;53.356;-1.748;2023-08-17T09:26:21;100168.63;;;15.94;100.00
69257;BME280;56376;53.356;-1.748;2023-08-17T09:28:50;100164.94;;;15.98;100.00
69257;BME280;56376;53.356;-1.748;2023-08-17T09:31:20;100174.31;;;16.04;100.00
69257;BME280;56376;53.356;-1.748;2023-08-17T09:33:48;100176.72;;;16.09;100.00
69257;BME280;56376;53.356;-1.748;2023-08-17T09:36:14;100173.94;;;16.12;100.00
69257;BME280;56376;53.356;-1.748;2023-08-17T09:38:40;100173.66;;;16.18;100.00
69257;BME280;56376;53.356;-1.748;2023-08-17T09:41:06;100165.66;;;16.19;100.00
69257;BME280;56376;53.356;-1.748;2023-08-17T09:43:32;100166.38;;;16.23;100.00
69257;BME280;56376;53.356;-1.748;2023-08-17T09:45:59;100175.91;;;16.26;100.00
69257;BME280;56376;53.356;-1.748;2023-08-17T09:48:27;100179.41;;;16.26;100.00
69257;BME280;56376;53.356;-1.748;2023-08-17T09:50:56;100169.63;;;16.28;100.00
69257;BME280;56376;53.356;-1.748;2023-08-17T09:53:21;100174.03;;;16.28;100.00
69257;BME280;56376;53.356;-1.748;2023-08-17T09:55:47;100165.13;;;16.30;100.00
69257;BME280;56376;53.356;-1.748;2023-08-17T09:58:13;100165.00;;;16.33;100.00
69257;BME280;56376;53.356;-1.748;2023-08-17T10:00:46;100168.16;;;16.40;100.00
69257;BME280;56376;53.356;-1.748;2023-08-17T10:03:13;100179.31;;;16.45;100.00
69257;BME280;56376;53.356;-1.748;2023-08-17T10:05:40;100178.94;;;16.53;100.00
69257;BME280;56376;53.356;-1.748;2023-08-17T10:08:07;100167.31;;;16.57;100.00
69257;BME280;56376;53.356;-1.748;2023-08-17T10:10:42;100167.13;;;16.60;100.00
69257;BME280;56376;53.356;-1.748;2023-08-17T10:13:13;100174.75;;;16.66;100.00
69257;BME280;56376;53.356;-1.748;2023-08-17T10:15:45;100160.56;;;16.69;100.00
69257;BME280;56376;53.356;-1.748;2023-08-17T10:20:47;100164.81;;;16.71;100.00
69257;BME280;56376;53.356;-1.748;2023-08-17T10:23:17;100160.03;;;16.79;100.00
69257;BME280;56376;53.356;-1.748;2023-08-17T10:25:44;100162.59;;;16.81;100.00
69257;BME280;56376;53.356;-1.748;2023-08-17T10:28:11;100157.16;;;16.84;100.00
69257;BME280;56376;53.356;-1.748;2023-08-17T10:30:37;100164.13;;;16.85;100.00
69257;BME280;56376;53.356;-1.748;2023-08-17T10:33:05;100147.44;;;16.84;100.00
69257;BME280;56376;53.356;-1.748;2023-08-17T10:35:32;100160.31;;;16.91;100.00
69257;BME280;56376;53.356;-1.748;2023-08-17T10:37:58;100161.09;;;16.93;100.00
69257;BME280;56376;53.356;-1.748;2023-08-17T10:40:28;100166.97;;;16.98;100.00
69257;BME280;56376;53.356;-1.748;2023-08-17T10:42:55;100154.38;;;17.03;100.00
69257;BME280;56376;53.356;-1.748;2023-08-17T10:45:31;100154.06;;;17.09;100.00
69257;BME280;56376;53.356;-1.748;2023-08-17T10:50:34;100155.28;;;17.19;100.00
69257;BME280;56376;53.356;-1.748;2023-08-17T10:53:08;100158.53;;;17.24;100.00
69257;BME280;56376;53.356;-1.748;2023-08-17T10:55:39;100161.78;;;17.29;100.00
69257;BME280;56376;53.356;-1.748;2023-08-17T10:58:08;100159.81;;;17.33;100.00
69257;BME280;56376;53.356;-1.748;2023-08-17T11:00:35;100156.25;;;17.34;100.00
69257;BME280;56376;53.356;-1.748;2023-08-17T11:03:05;100164.06;;;17.36;100.00
69257;BME280;56376;53.356;-1.748;2023-08-17T11:08:03;100171.84;;;17.39;100.00
69257;BME280;56376;53.356;-1.748;2023-08-17T11:10:29;100157.63;;;17.41;100.00
69257;BME280;56376;53.356;-1.748;2023-08-17T11:12:56;100151.91;;;17.49;100.00
69257;BME280;56376;53.356;-1.748;2023-08-17T11:15:45;100158.47;;;17.58;100.00
69257;BME280;56376;53.356;-1.748;2023-08-17T11:18:13;100146.81;;;17.62;100.00
69257;BME280;56376;53.356;-1.748;2023-08-17T11:20:41;100143.16;;;17.64;100.00
69257;BME280;56376;53.356;-1.748;2023-08-17T11:23:07;100142.97;;;17.67;100.00
69257;BME280;56376;53.356;-1.748;2023-08-17T11:25:33;100148.06;;;17.70;100.00
69257;BME280;56376;53.356;-1.748;2023-08-17T11:28:00;100156.69;;;17.74;100.00
69257;BME280;56376;53.356;-1.748;2023-08-17T11:30:27;100135.44;;;17.76;100.00
69257;BME280;56376;53.356;-1.748;2023-08-17T11:32:54;100142.22;;;17.81;100.00
69257;BME280;56376;53.356;-1.748;2023-08-17T11:35:20;100132.91;;;17.90;100.00
69257;BME280;56376;53.356;-1.748;2023-08-17T11:37:47;100129.91;;;17.96;100.00
69257;BME280;56376;53.356;-1.748;2023-08-17T11:40:13;100152.22;;;18.06;100.00
69257;BME280;56376;53.356;-1.748;2023-08-17T11:42:39;100148.31;;;18.13;100.00
69257;BME280;56376;53.356;-1.748;2023-08-17T11:45:06;100145.59;;;18.15;100.00
69257;BME280;56376;53.356;-1.748;2023-08-17T11:47:34;100137.66;;;18.15;100.00
69257;BME280;56376;53.356;-1.748;2023-08-17T11:50:00;100134.91;;;18.16;100.00
69257;BME280;56376;53.356;-1.748;2023-08-17T11:52:27;100133.22;;;18.15;100.00
69257;BME280;56376;53.356;-1.748;2023-08-17T11:54:56;100142.75;;;18.18;100.00
69257;BME280;56376;53.356;-1.748;2023-08-17T11:57:22;100150.88;;;18.15;100.00
69257;BME280;56376;53.356;-1.748;2023-08-17T11:59:47;100138.69;;;18.12;100.00
69257;BME280;56376;53.356;-1.748;2023-08-17T12:02:12;100138.09;;;18.07;100.00
69257;BME280;56376;53.356;-1.748;2023-08-17T12:04:38;100134.69;;;18.05;100.00
69257;BME280;56376;53.356;-1.748;2023-08-17T12:07:03;100138.00;;;18.09;100.00
69257;BME280;56376;53.356;-1.748;2023-08-17T12:09:32;100132.63;;;18.10;100.00
69257;BME280;56376;53.356;-1.748;2023-08-17T12:12:01;100128.09;;;18.12;100.00
69257;BME280;56376;53.356;-1.748;2023-08-17T12:14:27;100131.50;;;18.14;100.00
69257;BME280;56376;53.356;-1.748;2023-08-17T12:16:53;100122.44;;;18.19;100.00
69257;BME280;56376;53.356;-1.748;2023-08-17T12:19:24;100117.94;;;18.21;100.00
69257;BME280;56376;53.356;-1.748;2023-08-17T12:21:49;100114.25;;;18.23;100.00
69257;BME280;56376;53.356;-1.748;2023-08-17T12:24:15;100113.28;;;18.24;100.00
69257;BME280;56376;53.356;-1.748;2023-08-17T12:26:42;100116.53;;;18.29;100.00
69257;BME280;56376;53.356;-1.748;2023-08-17T12:29:08;100109.53;;;18.28;100.00
69257;BME280;56376;53.356;-1.748;2023-08-17T12:31:34;100107.75;;;18.29;100.00
69257;BME280;56376;53.356;-1.748;2023-08-17T12:33:59;100113.88;;;18.29;100.00
69257;BME280;56376;53.356;-1.748;2023-08-17T12:36:25;100105.88;;;18.31;100.00